createdAt,value
2017-04-10T00:00:10.797Z,32.33
2017-04-10T00:01:10.478Z,34.88
2017-04-10T00:02:10.178Z,35.92
2017-04-10T00:03:10.002Z,34.38
2017-04-10T00:04:10.042Z,34.07
2017-04-10T00:05:09.706Z,34.07
2017-04-10T00:06:09.398Z,35.32
2017-04-10T00:07:09.082Z,34.40
2017-04-10T00:08:08.758Z,34.62
2017-04-10T00:09:08.438Z,31.70
2017-04-10T00:10:08.334Z,34.18
2017-04-10T00:11:08.005Z,34.47
2017-04-10T00:12:07.687Z,33.55
2017-04-10T00:13:07.488Z,33.22
2017-04-10T00:14:07.170Z,33.92
2017-04-10T00:15:06.842Z,32.08
2017-04-10T00:16:06.872Z,31.90
2017-04-10T00:17:06.542Z,30.62
2017-04-10T00:18:06.242Z,32.23
2017-04-10T00:19:05.943Z,31.05
2017-04-10T00:20:05.790Z,30.80
2017-04-10T00:21:05.490Z,31.17
2017-04-10T00:22:05.347Z,31.27
2017-04-10T00:23:05.049Z,30.72
2017-04-10T00:24:04.746Z,31.77
2017-04-10T00:25:04.418Z,31.85
2017-04-10T00:26:04.095Z,30.42
2017-04-10T00:27:03.774Z,33.52
2017-04-10T00:28:03.638Z,32.53
2017-04-10T00:29:03.318Z,31.38
2017-04-10T00:30:03.077Z,30.45
2017-04-10T00:31:02.806Z,32.65
2017-04-10T00:32:02.582Z,30.02
2017-04-10T00:33:02.251Z,29.53
2017-04-10T00:34:02.148Z,30.05
2017-04-10T00:35:01.818Z,28.73
2017-04-10T00:36:02.013Z,29.05
2017-04-10T00:37:01.803Z,28.53
2017-04-10T00:38:01.490Z,29.10
2017-04-10T00:39:01.191Z,27.52
2017-04-10T00:40:01.057Z,27.15
2017-04-10T00:41:00.941Z,26.97
2017-04-10T00:42:00.619Z,25.83
2017-04-10T00:43:00.294Z,26.88
2017-04-10T00:43:59.971Z,27.80
2017-04-10T00:44:59.643Z,28.42
2017-04-10T00:45:59.493Z,27.53
2017-04-10T00:46:59.170Z,28.12
2017-04-10T00:47:58.838Z,28.43
2017-04-10T00:48:58.518Z,30.00
2017-04-10T00:49:58.183Z,31.35
2017-04-10T00:50:57.859Z,30.82
2017-04-10T00:51:57.854Z,28.22
2017-04-10T00:52:57.523Z,28.80
2017-04-10T00:53:57.325Z,29.48
2017-04-10T00:54:57.015Z,26.85
2017-04-10T00:55:56.686Z,27.62
2017-04-10T00:56:56.374Z,30.23
2017-04-10T00:57:56.270Z,29.28
2017-04-10T00:58:55.946Z,30.83
2017-04-10T00:59:55.623Z,31.18
2017-04-10T01:00:55.313Z,29.53
2017-04-10T01:01:54.986Z,26.38
2017-04-10T01:02:54.914Z,30.55
2017-04-10T01:03:54.871Z,32.55
2017-04-10T01:04:54.866Z,29.38
2017-04-10T01:05:54.534Z,27.60
2017-04-10T01:06:54.202Z,30.27
2017-04-10T01:07:53.890Z,27.35
2017-04-10T01:08:53.614Z,28.98
2017-04-10T01:09:53.475Z,30.07
2017-04-10T01:10:53.207Z,29.85
2017-04-10T01:11:52.893Z,29.98
2017-04-10T01:12:52.763Z,34.77
2017-04-10T01:13:52.466Z,32.33
2017-04-10T01:14:52.275Z,28.60
2017-04-10T01:15:52.179Z,31.20
2017-04-10T01:16:51.898Z,28.68
2017-04-10T01:17:51.586Z,28.20
2017-04-10T01:18:51.271Z,31.57
2017-04-10T01:19:50.938Z,29.25
2017-04-10T01:20:50.601Z,30.37
2017-04-10T01:21:50.479Z,31.43
2017-04-10T01:22:50.158Z,31.35
2017-04-10T01:23:49.839Z,28.28
2017-04-10T01:24:49.550Z,27.43
2017-04-10T01:25:49.233Z,29.50
2017-04-10T01:26:48.903Z,26.83
2017-04-10T01:27:48.870Z,25.75
2017-04-10T01:28:48.546Z,28.70
2017-04-10T01:29:48.226Z,29.32
2017-04-10T01:30:47.898Z,26.70
2017-04-10T01:31:47.576Z,28.17
2017-04-10T01:32:47.598Z,27.50
2017-04-10T01:33:47.682Z,28.50
2017-04-10T01:34:47.362Z,26.48
2017-04-10T01:35:47.042Z,28.43
2017-04-10T01:36:46.714Z,29.85
2017-04-10T01:37:46.388Z,26.83
2017-04-10T01:38:46.065Z,24.82
2017-04-10T01:39:45.981Z,27.65
2017-04-10T01:40:45.742Z,26.17
2017-04-10T01:41:45.417Z,27.15
2017-04-10T01:42:45.089Z,27.23
2017-04-10T01:43:44.844Z,29.72
2017-04-10T01:44:44.570Z,28.08
2017-04-10T01:45:44.590Z,28.80
2017-04-10T01:46:44.261Z,26.73
2017-04-10T01:47:43.972Z,25.25
2017-04-10T01:48:43.645Z,25.72
2017-04-10T01:49:43.318Z,26.85
2017-04-10T01:50:43.002Z,27.55
2017-04-10T01:51:42.889Z,28.28
2017-04-10T01:52:42.561Z,27.73
2017-04-10T01:53:42.243Z,29.83
2017-04-10T01:54:41.919Z,25.97
2017-04-10T01:55:41.619Z,26.75
2017-04-10T01:56:41.594Z,26.62
2017-04-10T01:57:41.500Z,28.02
2017-04-10T01:58:41.267Z,25.15
2017-04-10T01:59:40.957Z,26.03
2017-04-10T02:00:40.631Z,25.98
2017-04-10T02:01:40.330Z,28.18
2017-04-10T02:02:40.730Z,27.98
2017-04-10T02:03:40.611Z,27.40
2017-04-10T02:04:40.300Z,29.05
2017-04-10T02:05:39.974Z,24.25
2017-04-10T02:06:39.684Z,26.90
2017-04-10T02:07:39.367Z,23.97
2017-04-10T02:08:39.047Z,27.58
2017-04-10T02:09:38.910Z,26.35
2017-04-10T02:10:38.573Z,25.35
2017-04-10T02:11:38.238Z,24.72
2017-04-10T02:12:37.910Z,25.33
2017-04-10T02:13:37.659Z,26.30
2017-04-10T02:14:37.326Z,24.53
2017-04-10T02:15:37.312Z,25.55
2017-04-10T02:16:36.990Z,26.57
2017-04-10T02:17:36.662Z,24.28
2017-04-10T02:18:36.351Z,27.52
2017-04-10T02:19:36.038Z,23.78
2017-04-10T02:20:35.711Z,23.70
2017-04-10T02:21:35.931Z,25.02
2017-04-10T02:22:35.606Z,25.10
2017-04-10T02:23:35.359Z,27.30
2017-04-10T02:24:35.057Z,27.08
2017-04-10T02:25:34.766Z,22.93
2017-04-10T02:26:34.454Z,25.05
2017-04-10T02:27:34.324Z,22.65
2017-04-10T02:28:34.002Z,23.22
2017-04-10T02:29:33.774Z,23.50
2017-04-10T02:30:34.181Z,23.67
2017-04-10T02:31:33.861Z,23.78
2017-04-10T02:32:33.566Z,23.83
2017-04-10T02:33:33.402Z,23.37
2017-04-10T02:34:33.218Z,21.63
2017-04-10T02:35:32.898Z,22.13
2017-04-10T02:36:32.578Z,23.58
2017-04-10T02:37:32.278Z,22.90
2017-04-10T02:38:31.970Z,25.82
2017-04-10T02:39:31.969Z,22.55
2017-04-10T02:40:31.914Z,24.68
2017-04-10T02:41:31.590Z,21.22
2017-04-10T02:42:31.306Z,21.50
2017-04-10T02:43:30.986Z,24.52
2017-04-10T02:44:30.798Z,21.83
2017-04-10T02:45:30.746Z,24.02
2017-04-10T02:46:30.418Z,22.88
2017-04-10T02:47:30.106Z,22.40
2017-04-10T02:48:29.797Z,24.53
2017-04-10T02:49:29.474Z,23.47
2017-04-10T02:50:29.167Z,20.98
2017-04-10T02:51:29.247Z,24.60
2017-04-10T02:52:28.923Z,20.97
2017-04-10T02:53:28.602Z,21.87
2017-04-10T02:54:28.302Z,22.95
2017-04-10T02:55:27.997Z,22.98
2017-04-10T02:56:27.670Z,22.23
2017-04-10T02:57:27.548Z,22.52
2017-04-10T02:58:27.226Z,23.82
2017-04-10T02:59:26.902Z,23.63
2017-04-10T03:00:26.581Z,25.95
2017-04-10T03:01:26.250Z,23.92
2017-04-10T03:02:26.186Z,25.40
2017-04-10T03:03:26.830Z,25.53
2017-04-10T03:04:26.511Z,22.78
2017-04-10T03:05:26.318Z,25.08
2017-04-10T03:06:25.990Z,20.83
2017-04-10T03:07:25.667Z,22.57
2017-04-10T03:08:25.366Z,23.62
2017-04-10T03:09:25.314Z,24.47
2017-04-10T03:10:24.998Z,24.85
2017-04-10T03:11:24.670Z,26.18
2017-04-10T03:12:24.346Z,23.90
2017-04-10T03:13:24.070Z,25.48
2017-04-10T03:14:23.745Z,24.95
2017-04-10T03:15:23.672Z,21.88
2017-04-10T03:16:23.350Z,24.08
2017-04-10T03:17:23.030Z,25.72
2017-04-10T03:18:22.730Z,22.13
2017-04-10T03:19:22.410Z,22.88
2017-04-10T03:20:22.111Z,22.62
2017-04-10T03:21:23.054Z,21.33
2017-04-10T03:22:22.855Z,25.20
2017-04-10T03:23:22.610Z,25.43
2017-04-10T03:24:22.286Z,21.50
2017-04-10T03:25:22.080Z,25.47
2017-04-10T03:26:21.772Z,21.98
2017-04-10T03:27:21.710Z,24.63
2017-04-10T03:28:21.397Z,25.93
2017-04-10T03:29:21.090Z,21.85
2017-04-10T03:30:20.767Z,24.90
2017-04-10T03:31:20.454Z,24.78
2017-04-10T03:32:20.131Z,25.12
2017-04-10T03:33:19.965Z,25.55
2017-04-10T03:34:19.654Z,25.67
2017-04-10T03:35:19.354Z,24.02
2017-04-10T03:36:19.031Z,24.75
2017-04-10T03:37:18.712Z,22.22
2017-04-10T03:38:18.604Z,23.23
2017-04-10T03:39:18.508Z,22.25
2017-04-10T03:40:18.191Z,25.00
2017-04-10T03:41:17.858Z,21.97
2017-04-10T03:42:17.538Z,21.22
2017-04-10T03:43:17.214Z,21.30
2017-04-10T03:44:16.962Z,26.20
2017-04-10T03:45:17.011Z,20.82
2017-04-10T03:46:16.679Z,21.45
2017-04-10T03:47:16.338Z,25.70
2017-04-10T03:48:16.018Z,23.82
2017-04-10T03:49:15.690Z,24.63
2017-04-10T03:50:15.371Z,23.72
2017-04-10T03:51:15.309Z,23.77
2017-04-10T03:52:14.978Z,24.70
2017-04-10T03:53:14.675Z,24.42
2017-04-10T03:54:14.373Z,24.68
2017-04-10T03:55:14.075Z,23.20
2017-04-10T03:56:13.737Z,24.33
2017-04-10T03:57:13.602Z,25.52
2017-04-10T03:58:13.270Z,23.08
2017-04-10T03:59:12.974Z,24.33
2017-04-10T04:00:12.705Z,22.30
2017-04-10T04:01:12.369Z,24.80
2017-04-10T04:02:12.038Z,22.10
2017-04-10T04:03:11.897Z,22.88
2017-04-10T04:04:11.647Z,24.92
2017-04-10T04:05:11.329Z,20.85
2017-04-10T04:06:11.002Z,23.43
2017-04-10T04:07:11.416Z,22.73
2017-04-10T04:08:11.131Z,22.05
2017-04-10T04:09:11.018Z,21.75
2017-04-10T04:10:10.697Z,22.77
2017-04-10T04:11:10.358Z,22.60
2017-04-10T04:12:10.032Z,21.80
2017-04-10T04:13:09.718Z,22.92
2017-04-10T04:14:09.459Z,22.05
2017-04-10T04:15:09.833Z,24.73
2017-04-10T04:16:09.506Z,24.62
2017-04-10T04:17:09.186Z,22.03
2017-04-10T04:18:08.895Z,22.40
2017-04-10T04:19:08.562Z,22.78
2017-04-10T04:20:08.234Z,21.02
2017-04-10T04:21:08.131Z,21.10
2017-04-10T04:22:07.870Z,22.90
2017-04-10T04:23:07.543Z,25.05
2017-04-10T04:24:07.273Z,21.98
2017-04-10T04:25:06.966Z,20.92
2017-04-10T04:26:06.634Z,20.43
2017-04-10T04:27:06.638Z,20.62
2017-04-10T04:28:06.361Z,19.82
2017-04-10T04:29:06.033Z,24.62
2017-04-10T04:30:05.701Z,20.85
2017-04-10T04:31:05.366Z,19.63
2017-04-10T04:32:05.034Z,22.75
2017-04-10T04:33:04.935Z,21.78
2017-04-10T04:34:04.602Z,24.70
2017-04-10T04:35:04.294Z,18.37
2017-04-10T04:36:04.194Z,26.03
2017-04-10T04:37:03.894Z,18.95
2017-04-10T04:38:03.581Z,18.30
2017-04-10T04:39:03.542Z,19.00
2017-04-10T04:40:03.217Z,20.25
2017-04-10T04:41:02.891Z,21.22
2017-04-10T04:42:02.558Z,21.83
2017-04-10T04:43:02.244Z,24.20
2017-04-10T04:44:01.934Z,20.00
2017-04-10T04:45:01.846Z,21.70
2017-04-10T04:46:01.519Z,21.33
2017-04-10T04:47:01.200Z,18.82
2017-04-10T04:48:00.970Z,19.17
2017-04-10T04:49:00.642Z,18.20
2017-04-10T04:50:00.350Z,18.90
2017-04-10T04:51:00.259Z,18.78
2017-04-10T04:51:59.946Z,20.40
2017-04-10T04:52:59.690Z,17.13
2017-04-10T04:53:59.366Z,18.88
2017-04-10T04:54:59.046Z,19.37
2017-04-10T04:55:58.726Z,18.95
2017-04-10T04:56:58.565Z,18.33
2017-04-10T04:57:58.231Z,19.15
2017-04-10T04:58:57.921Z,18.30
2017-04-10T04:59:57.604Z,19.13
2017-04-10T05:00:57.366Z,18.58
2017-04-10T05:01:57.061Z,19.10
2017-04-10T05:02:56.936Z,20.22
2017-04-10T05:03:56.823Z,19.93
2017-04-10T05:04:56.494Z,18.18
2017-04-10T05:05:56.158Z,20.18
2017-04-10T05:06:55.838Z,20.30
2017-04-10T05:07:55.526Z,21.22
2017-04-10T05:08:55.538Z,16.32
2017-04-10T05:09:55.277Z,19.23
2017-04-10T05:10:55.027Z,23.63
2017-04-10T05:11:54.702Z,18.07
2017-04-10T05:12:54.369Z,18.90
2017-04-10T05:13:54.077Z,16.98
2017-04-10T05:14:53.942Z,18.23
2017-04-10T05:15:53.690Z,15.88
2017-04-10T05:16:53.506Z,18.77
2017-04-10T05:17:53.258Z,18.15
2017-04-10T05:18:52.925Z,20.40
2017-04-10T05:19:52.602Z,18.03
2017-04-10T05:20:52.567Z,17.67
2017-04-10T05:21:52.242Z,18.37
2017-04-10T05:22:51.938Z,18.25
2017-04-10T05:23:51.609Z,17.88
2017-04-10T05:24:51.282Z,17.18
2017-04-10T05:25:50.979Z,18.63
2017-04-10T05:26:50.678Z,15.77
2017-04-10T05:27:50.349Z,22.55
2017-04-10T05:28:50.040Z,19.48
2017-04-10T05:29:49.790Z,18.73
2017-04-10T05:30:49.466Z,18.43
2017-04-10T05:31:49.176Z,19.22
2017-04-10T05:32:48.858Z,19.90
2017-04-10T05:33:49.175Z,16.57
2017-04-10T05:34:48.850Z,21.13
2017-04-10T05:35:48.703Z,17.90
2017-04-10T05:36:48.546Z,20.58
2017-04-10T05:37:48.222Z,20.55
2017-04-10T05:38:47.921Z,19.43
2017-04-10T05:39:47.611Z,19.82
2017-04-10T05:40:47.291Z,20.00
2017-04-10T05:41:47.007Z,22.22
2017-04-10T05:42:46.754Z,20.93
2017-04-10T05:43:46.417Z,18.77
2017-04-10T05:44:46.098Z,18.88
2017-04-10T05:45:45.774Z,17.82
2017-04-10T05:46:46.114Z,19.47
2017-04-10T05:47:45.822Z,17.00
2017-04-10T05:48:45.517Z,21.92
2017-04-10T05:49:45.190Z,18.30
2017-04-10T05:50:45.469Z,20.13
2017-04-10T05:51:45.322Z,20.75
2017-04-10T05:52:45.039Z,19.38
2017-04-10T05:53:44.734Z,18.80
2017-04-10T05:54:44.421Z,18.02
2017-04-10T05:55:44.098Z,20.43
2017-04-10T05:56:43.768Z,19.92
2017-04-10T05:57:43.537Z,19.12
2017-04-10T05:58:43.198Z,21.23
2017-04-10T05:59:42.874Z,19.25
2017-04-10T06:00:42.631Z,20.20
2017-04-10T06:01:42.322Z,19.85
2017-04-10T06:02:42.030Z,21.68
2017-04-10T06:03:41.755Z,21.65
2017-04-10T06:04:41.448Z,18.65
2017-04-10T06:05:41.134Z,20.48
2017-04-10T06:06:40.836Z,20.93
2017-04-10T06:07:40.581Z,18.12
2017-04-10T06:08:40.285Z,18.93
2017-04-10T06:09:40.029Z,19.47
2017-04-10T06:10:39.718Z,18.98
2017-04-10T06:11:39.437Z,19.80
2017-04-10T06:12:39.217Z,19.27
2017-04-10T06:13:38.902Z,18.55
2017-04-10T06:14:38.661Z,20.20
2017-04-10T06:15:38.380Z,20.12
2017-04-10T06:16:38.101Z,19.35
2017-04-10T06:17:37.983Z,22.57
2017-04-10T06:18:37.671Z,18.95
2017-04-10T06:19:37.402Z,19.85
2017-04-10T06:20:37.071Z,19.82
2017-04-10T06:21:36.775Z,19.72
2017-04-10T06:22:36.602Z,19.53
2017-04-10T06:23:36.474Z,18.58
2017-04-10T06:24:36.158Z,18.05
2017-04-10T06:25:35.834Z,18.95
2017-04-10T06:26:35.508Z,21.92
2017-04-10T06:27:35.210Z,22.13
2017-04-10T06:28:34.894Z,16.43
2017-04-10T06:29:34.690Z,18.85
2017-04-10T06:30:34.387Z,17.80
2017-04-10T06:31:34.062Z,18.10
2017-04-10T06:32:33.857Z,18.15
2017-04-10T06:33:33.529Z,19.62
2017-04-10T06:34:33.227Z,19.17
2017-04-10T06:35:33.019Z,17.95
2017-04-10T06:36:32.706Z,20.02
2017-04-10T06:37:32.382Z,20.37
2017-04-10T06:38:32.154Z,20.05
2017-04-10T06:39:32.117Z,20.97
2017-04-10T06:40:31.886Z,18.73
2017-04-10T06:41:31.580Z,20.15
2017-04-10T06:42:31.281Z,21.35
2017-04-10T06:43:31.041Z,20.55
2017-04-10T06:44:30.762Z,20.35
2017-04-10T06:45:30.498Z,24.27
2017-04-10T06:46:30.234Z,21.00
2017-04-10T06:47:29.982Z,19.13
2017-04-10T06:48:29.657Z,19.32
2017-04-10T06:49:29.327Z,18.92
2017-04-10T06:50:29.050Z,18.93
2017-04-10T06:51:28.742Z,19.85
2017-04-10T06:52:28.450Z,18.82
2017-04-10T06:53:28.134Z,18.33
2017-04-10T06:54:27.811Z,22.25
2017-04-10T06:55:27.524Z,20.67
2017-04-10T06:56:27.224Z,20.07
2017-04-10T06:57:26.917Z,17.20
2017-04-10T06:58:26.701Z,18.98
2017-04-10T06:59:26.389Z,18.85
2017-04-10T07:00:26.386Z,21.32
2017-04-10T07:01:26.058Z,20.27
2017-04-10T07:02:25.730Z,20.00
2017-04-10T07:03:25.405Z,18.88
2017-04-10T07:04:25.327Z,19.22
2017-04-10T07:05:24.991Z,21.63
2017-04-10T07:06:24.843Z,19.92
2017-04-10T07:07:24.512Z,20.47
2017-04-10T07:08:24.198Z,19.00
2017-04-10T07:09:23.887Z,20.50
2017-04-10T07:10:23.555Z,19.90
2017-04-10T07:11:23.468Z,18.48
2017-04-10T07:12:23.366Z,20.08
2017-04-10T07:13:23.107Z,19.43
2017-04-10T07:14:22.785Z,19.07
2017-04-10T07:15:22.447Z,19.63
2017-04-10T07:16:22.125Z,20.73
2017-04-10T07:17:21.786Z,21.43
2017-04-10T07:18:21.779Z,21.40
2017-04-10T07:19:21.434Z,23.48
2017-04-10T07:20:21.094Z,21.03
2017-04-10T07:21:20.770Z,20.32
2017-04-10T07:22:20.527Z,19.83
2017-04-10T07:23:20.186Z,21.22
2017-04-10T07:24:20.078Z,22.25
2017-04-10T07:25:19.778Z,24.32
2017-04-10T07:26:19.467Z,22.35
2017-04-10T07:27:19.150Z,21.43
2017-04-10T07:28:18.825Z,21.92
2017-04-10T07:29:18.496Z,23.67
2017-04-10T07:30:18.346Z,22.62
2017-04-10T07:31:18.021Z,22.90
2017-04-10T07:32:17.694Z,22.53
2017-04-10T07:33:17.447Z,22.83
2017-04-10T07:34:17.230Z,26.65
2017-04-10T07:35:17.058Z,23.35
2017-04-10T07:36:17.086Z,27.62
2017-04-10T07:37:16.793Z,23.03
2017-04-10T07:38:16.579Z,25.58
2017-04-10T07:39:16.266Z,24.22
2017-04-10T07:40:16.018Z,24.52
2017-04-10T07:41:15.726Z,25.83
2017-04-10T07:42:15.724Z,29.20
2017-04-10T07:43:15.425Z,25.25
2017-04-10T07:44:15.126Z,28.15
2017-04-10T07:45:14.813Z,29.13
2017-04-10T07:46:14.599Z,27.00
2017-04-10T07:47:14.298Z,29.18
2017-04-10T07:48:14.199Z,30.22
2017-04-10T07:49:13.894Z,30.38
2017-04-10T07:50:13.564Z,30.63
2017-04-10T07:51:13.250Z,29.90
2017-04-10T07:52:12.950Z,30.22
2017-04-10T07:53:12.614Z,30.02
2017-04-10T07:54:12.702Z,29.43
2017-04-10T07:55:12.378Z,30.72
2017-04-10T07:56:12.157Z,32.75
2017-04-10T07:57:11.848Z,30.92
2017-04-10T07:58:11.529Z,33.13
2017-04-10T07:59:11.258Z,35.78
2017-04-10T08:00:11.301Z,36.08
2017-04-10T08:01:10.980Z,41.38
2017-04-10T08:02:10.683Z,37.77
2017-04-10T08:03:10.501Z,39.88
2017-04-10T08:04:10.170Z,38.97
2017-04-10T08:05:10.055Z,37.73
2017-04-10T08:06:09.877Z,44.08
2017-04-10T08:07:09.550Z,37.30
2017-04-10T08:08:09.234Z,39.42
2017-04-10T08:09:08.910Z,37.83
2017-04-10T08:10:08.581Z,36.02
2017-04-10T08:11:08.272Z,39.08
2017-04-10T08:12:08.206Z,38.00
2017-04-10T08:13:07.902Z,44.22
2017-04-10T08:14:07.658Z,40.77
2017-04-10T08:15:07.350Z,39.08
2017-04-10T08:16:07.023Z,42.18
2017-04-10T08:17:06.719Z,36.88
2017-04-10T08:18:06.607Z,35.63
2017-04-10T08:19:06.274Z,37.15
2017-04-10T08:20:05.942Z,41.88
2017-04-10T08:21:05.617Z,40.43
2017-04-10T08:22:05.295Z,39.32
2017-04-10T08:23:04.995Z,37.20
2017-04-10T08:24:04.908Z,36.93
2017-04-10T08:25:04.678Z,38.45
2017-04-10T08:26:04.389Z,42.48
2017-04-10T08:27:04.074Z,35.08
2017-04-10T08:28:03.742Z,35.65
2017-04-10T08:29:03.451Z,35.88
2017-04-10T08:30:03.422Z,40.87
2017-04-10T08:31:03.110Z,36.00
2017-04-10T08:32:02.800Z,38.05
2017-04-10T08:33:02.566Z,41.30
2017-04-10T08:34:02.255Z,38.88
2017-04-10T08:35:01.932Z,36.70
2017-04-10T08:36:01.958Z,41.47
2017-04-10T08:37:01.633Z,40.10
2017-04-10T08:38:01.310Z,36.55
2017-04-10T08:39:00.996Z,44.42
2017-04-10T08:40:00.686Z,40.63
2017-04-10T08:41:00.350Z,37.38
2017-04-10T08:42:00.331Z,41.02
2017-04-10T08:43:00.007Z,42.72
2017-04-10T08:43:59.685Z,40.28
2017-04-10T08:44:59.358Z,38.13
2017-04-10T08:45:59.154Z,43.17
2017-04-10T08:46:58.877Z,40.33
2017-04-10T08:47:58.918Z,35.75
2017-04-10T08:48:58.581Z,40.00
2017-04-10T08:49:58.258Z,42.13
2017-04-10T08:50:57.959Z,39.55
2017-04-10T08:51:57.665Z,39.22
2017-04-10T08:52:57.341Z,37.58
2017-04-10T08:53:57.418Z,36.70
2017-04-10T08:54:57.078Z,45.32
2017-04-10T08:55:56.751Z,42.18
2017-04-10T08:56:56.415Z,42.50
2017-04-10T08:57:56.075Z,36.63
2017-04-10T08:58:55.813Z,41.22
2017-04-10T08:59:55.861Z,39.67
2017-04-10T09:00:55.529Z,38.40
2017-04-10T09:01:55.207Z,38.80
2017-04-10T09:02:54.878Z,40.93
2017-04-10T09:03:54.574Z,37.32
2017-04-10T09:04:54.402Z,39.33
2017-04-10T09:05:54.326Z,40.50
2017-04-10T09:06:54.007Z,39.88
2017-04-10T09:07:53.669Z,42.77
2017-04-10T09:08:53.333Z,38.68
2017-04-10T09:09:53.001Z,38.00
2017-04-10T09:10:52.682Z,33.88
2017-04-10T09:11:52.505Z,34.25
2017-04-10T09:12:52.194Z,31.50
2017-04-10T09:13:51.878Z,30.10
2017-04-10T09:14:51.554Z,37.33
2017-04-10T09:15:51.247Z,34.95
2017-04-10T09:16:50.978Z,33.18
2017-04-10T09:17:50.926Z,34.98
2017-04-10T09:18:50.606Z,35.72
2017-04-10T09:19:50.814Z,32.85
2017-04-10T09:20:50.500Z,33.72
2017-04-10T09:21:50.194Z,36.73
2017-04-10T09:22:49.882Z,33.08
2017-04-10T09:23:49.710Z,31.50
2017-04-10T09:24:49.390Z,30.88
2017-04-10T09:25:49.090Z,29.57
2017-04-10T09:26:48.763Z,30.83
2017-04-10T09:27:48.538Z,30.98
2017-04-10T09:28:48.206Z,34.43
2017-04-10T09:29:48.331Z,32.53
2017-04-10T09:30:48.002Z,31.65
2017-04-10T09:31:47.674Z,29.42
2017-04-10T09:32:48.386Z,29.52
2017-04-10T09:33:49.929Z,30.12
2017-04-10T09:34:52.046Z,30.52
2017-04-10T09:35:51.742Z,31.67
2017-04-10T09:36:51.418Z,29.40
2017-04-10T09:37:51.123Z,27.83
2017-04-10T09:38:50.798Z,30.45
2017-04-10T09:39:50.632Z,30.53
2017-04-10T09:40:50.557Z,30.75
2017-04-10T09:41:50.269Z,26.95
2017-04-10T09:42:49.954Z,30.15
2017-04-10T09:43:49.621Z,28.72
2017-04-10T09:44:49.318Z,29.02
2017-04-10T09:45:49.030Z,29.45
2017-04-10T09:46:49.014Z,30.58
2017-04-10T09:47:48.714Z,31.92
2017-04-10T09:48:48.396Z,28.62
2017-04-10T09:49:48.116Z,33.28
2017-04-10T09:50:47.789Z,30.05
2017-04-10T09:51:47.454Z,27.30
2017-04-10T09:52:47.332Z,30.45
2017-04-10T09:53:47.014Z,32.38
2017-04-10T09:54:46.682Z,28.93
2017-04-10T09:55:46.380Z,24.50
2017-04-10T09:56:46.054Z,25.78
2017-04-10T09:57:45.729Z,28.95
2017-04-10T09:58:45.670Z,26.70
2017-04-10T09:59:45.346Z,27.68
2017-04-10T10:00:45.033Z,27.53
2017-04-10T10:01:44.778Z,27.10
2017-04-10T10:02:44.482Z,26.48
2017-04-10T10:03:44.192Z,25.98
2017-04-10T10:04:44.166Z,31.67
2017-04-10T10:05:43.851Z,27.15
2017-04-10T10:06:43.546Z,31.03
2017-04-10T10:07:43.210Z,27.28
2017-04-10T10:08:42.882Z,27.03
2017-04-10T10:09:42.561Z,33.58
2017-04-10T10:10:42.684Z,32.58
2017-04-10T10:11:42.366Z,29.05
2017-04-10T10:12:42.110Z,29.62
2017-04-10T10:13:41.814Z,27.25
2017-04-10T10:14:41.546Z,28.38
2017-04-10T10:15:41.262Z,28.80
2017-04-10T10:16:41.178Z,29.48
2017-04-10T10:17:40.861Z,27.82
2017-04-10T10:18:40.538Z,30.23
2017-04-10T10:19:40.213Z,27.42
2017-04-10T10:20:39.897Z,28.98
2017-04-10T10:21:39.978Z,27.23
2017-04-10T10:22:39.973Z,35.37
2017-04-10T10:23:39.650Z,28.12
2017-04-10T10:24:39.318Z,28.40
2017-04-10T10:25:38.998Z,28.38
2017-04-10T10:26:38.678Z,28.15
2017-04-10T10:27:38.363Z,28.18
2017-04-10T10:28:38.444Z,29.27
2017-04-10T10:29:38.108Z,28.88
2017-04-10T10:30:37.842Z,27.62
2017-04-10T10:31:37.521Z,29.82
2017-04-10T10:32:37.182Z,26.98
2017-04-10T10:33:36.851Z,29.02
2017-04-10T10:34:36.714Z,34.25
2017-04-10T10:35:36.386Z,30.22
2017-04-10T10:36:36.062Z,27.65
2017-04-10T10:37:35.730Z,26.82
2017-04-10T10:38:35.400Z,27.23
2017-04-10T10:39:35.110Z,25.37
2017-04-10T10:40:35.079Z,32.40
2017-04-10T10:41:34.762Z,25.67
2017-04-10T10:42:34.434Z,27.37
2017-04-10T10:43:34.110Z,27.03
2017-04-10T10:44:33.791Z,24.65
2017-04-10T10:45:33.463Z,28.42
2017-04-10T10:46:33.374Z,25.72
2017-04-10T10:47:33.342Z,27.58
2017-04-10T10:48:33.022Z,26.85
2017-04-10T10:49:32.706Z,30.13
2017-04-10T10:50:32.395Z,26.87
2017-04-10T10:51:32.077Z,23.98
2017-04-10T10:52:31.998Z,22.25
2017-04-10T10:53:32.250Z,23.37
2017-04-10T10:54:31.906Z,23.05
2017-04-10T10:55:31.574Z,23.93
2017-04-10T10:56:31.250Z,23.18
2017-04-10T10:57:30.946Z,21.23
2017-04-10T10:58:30.802Z,22.90
2017-04-10T10:59:30.492Z,25.63
2017-04-10T11:00:30.173Z,22.75
2017-04-10T11:01:29.873Z,21.95
2017-04-10T11:02:29.550Z,23.30
2017-04-10T11:03:29.231Z,21.03
2017-04-10T11:04:29.093Z,22.00
2017-04-10T11:05:28.774Z,21.85
2017-04-10T11:06:28.456Z,21.12
2017-04-10T11:07:28.138Z,20.10
2017-04-10T11:08:27.818Z,19.55
2017-04-10T11:09:27.508Z,18.27
2017-04-10T11:10:27.398Z,19.62
2017-04-10T11:11:27.087Z,19.92
2017-04-10T11:12:26.758Z,21.15
2017-04-10T11:13:28.617Z,17.30
2017-04-10T11:14:28.310Z,26.98
2017-04-10T11:15:28.139Z,21.07
2017-04-10T11:16:27.806Z,19.98
2017-04-10T11:17:27.587Z,18.30
2017-04-10T11:18:27.258Z,20.97
2017-04-10T11:19:26.942Z,18.63
2017-04-10T11:20:26.634Z,18.35
2017-04-10T11:21:26.494Z,22.42
2017-04-10T11:22:26.165Z,17.43
2017-04-10T11:23:25.834Z,19.03
2017-04-10T11:24:25.540Z,20.75
2017-04-10T11:25:25.203Z,22.10
2017-04-10T11:26:24.866Z,20.70
2017-04-10T11:27:24.745Z,28.55
2017-04-10T11:28:24.429Z,20.32
2017-04-10T11:29:24.103Z,18.78
2017-04-10T11:30:23.873Z,18.83
2017-04-10T11:31:23.558Z,20.50
2017-04-10T11:32:23.226Z,21.62
2017-04-10T11:33:23.153Z,20.03
2017-04-10T11:34:22.829Z,22.48
2017-04-10T11:35:22.506Z,20.17
2017-04-10T11:36:22.221Z,26.08
2017-04-10T11:37:21.905Z,22.88
2017-04-10T11:38:21.780Z,19.38
2017-04-10T11:39:21.633Z,19.47
2017-04-10T11:40:21.309Z,21.48
2017-04-10T11:41:20.998Z,20.12
2017-04-10T11:42:20.746Z,17.67
2017-04-10T11:43:20.518Z,18.05
2017-04-10T11:44:20.949Z,18.33
2017-04-10T11:45:20.855Z,19.65
2017-04-10T11:46:20.533Z,20.48
2017-04-10T11:47:20.204Z,19.20
2017-04-10T11:48:19.904Z,17.90
2017-04-10T11:49:19.604Z,20.12
2017-04-10T11:50:19.330Z,19.55
2017-04-10T11:51:19.261Z,21.03
2017-04-10T11:52:19.016Z,19.25
2017-04-10T11:53:18.737Z,19.82
2017-04-10T11:54:18.507Z,22.37
2017-04-10T11:55:18.217Z,22.17
2017-04-10T11:56:17.882Z,22.18
2017-04-10T11:57:17.934Z,23.10
2017-04-10T11:58:17.663Z,19.58
2017-04-10T11:59:17.337Z,21.28
2017-04-10T12:00:17.023Z,21.23
2017-04-10T12:01:16.731Z,19.23
2017-04-10T12:02:16.414Z,18.70
2017-04-10T12:03:16.275Z,16.25
2017-04-10T12:04:16.064Z,18.32
2017-04-10T12:05:15.887Z,19.93
2017-04-10T12:06:15.606Z,20.07
2017-04-10T12:07:15.288Z,18.15
2017-04-10T12:08:14.982Z,18.67
2017-04-10T12:09:14.886Z,17.72
2017-04-10T12:10:14.625Z,23.98
2017-04-10T12:11:14.311Z,18.00
2017-04-10T12:12:14.010Z,19.63
2017-04-10T12:13:13.768Z,22.03
2017-04-10T12:14:14.172Z,22.60
2017-04-10T12:15:14.127Z,26.63
2017-04-10T12:16:13.844Z,22.70
2017-04-10T12:17:13.532Z,20.97
2017-04-10T12:18:13.248Z,18.68
2017-04-10T12:19:12.918Z,17.72
2017-04-10T12:20:12.611Z,19.05
2017-04-10T12:21:12.906Z,19.03
2017-04-10T12:22:12.590Z,18.12
2017-04-10T12:23:12.578Z,20.12
2017-04-10T12:24:12.274Z,17.30
2017-04-10T12:25:12.006Z,18.27
2017-04-10T12:26:11.699Z,20.33
2017-04-10T12:27:11.844Z,22.85
2017-04-10T12:28:11.550Z,17.55
2017-04-10T12:29:11.254Z,18.63
2017-04-10T12:30:10.983Z,16.85
2017-04-10T12:31:12.165Z,20.45
2017-04-10T12:32:12.015Z,22.57
2017-04-10T12:33:11.707Z,16.03
2017-04-10T12:34:11.766Z,17.58
2017-04-10T12:35:11.482Z,20.08
2017-04-10T12:36:11.169Z,17.37
2017-04-10T12:37:10.851Z,14.73
2017-04-10T12:38:10.739Z,17.97
2017-04-10T12:39:10.438Z,14.35
2017-04-10T12:40:10.114Z,14.58
2017-04-10T12:41:09.782Z,13.72
2017-04-10T12:42:09.502Z,12.92
2017-04-10T12:43:09.179Z,15.12
2017-04-10T12:44:09.383Z,18.18
2017-04-10T12:45:09.691Z,12.05
2017-04-10T12:46:09.470Z,13.70
2017-04-10T12:47:09.162Z,13.83
2017-04-10T12:48:08.876Z,16.07
2017-04-10T12:49:08.647Z,13.32